createdAt,value
2023-01-13T00:01:29.902Z,2.40
2023-01-13T00:03:58.115Z,2.80
2023-01-13T00:06:26.398Z,3.00
2023-01-13T00:08:57.247Z,2.40
2023-01-13T00:11:26.580Z,2.30
2023-01-13T00:13:57.161Z,2.30
2023-01-13T00:16:25.261Z,2.70
2023-01-13T00:18:53.189Z,2.50
2023-01-13T00:21:24.337Z,2.50
2023-01-13T00:23:56.448Z,2.40
2023-01-13T00:26:28.041Z,2.80
2023-01-13T00:29:00.300Z,2.70
2023-01-13T00:31:29.947Z,2.50
2023-01-13T00:34:00.597Z,2.40
2023-01-13T00:36:29.468Z,2.60
2023-01-13T00:38:58.416Z,2.40
2023-01-13T00:41:27.270Z,2.10
2023-01-13T00:43:55.264Z,2.70
2023-01-13T00:46:23.442Z,2.30
2023-01-13T00:48:51.784Z,2.00
2023-01-13T00:51:21.973Z,2.70
2023-01-13T00:53:52.087Z,2.60
2023-01-13T00:56:39.062Z,2.60
2023-01-13T00:59:10.759Z,2.60
2023-01-13T01:01:39.360Z,2.90
2023-01-13T01:04:07.709Z,3.00
2023-01-13T01:06:35.695Z,2.70
2023-01-13T01:09:04.984Z,2.60
2023-01-13T01:11:33.771Z,2.30
2023-01-13T01:14:03.763Z,2.20
2023-01-13T01:16:33.315Z,2.60
2023-01-13T01:19:02.172Z,2.90
2023-01-13T01:21:30.265Z,2.40
2023-01-13T01:24:01.774Z,2.40
2023-01-13T01:26:31.092Z,2.50
2023-01-13T01:28:59.533Z,2.10
2023-01-13T01:31:34.117Z,2.30
2023-01-13T01:34:02.453Z,2.50
2023-01-13T01:36:30.563Z,2.40
2023-01-13T01:38:59.493Z,2.30
2023-01-13T01:41:32.098Z,2.20
2023-01-13T01:44:43.640Z,2.50
2023-01-13T01:47:15.886Z,2.40
2023-01-13T01:49:44.910Z,2.60
2023-01-13T01:52:36.656Z,2.50
2023-01-13T01:55:21.882Z,2.70
2023-01-13T01:58:02.032Z,3.20
2023-01-13T02:00:30.381Z,2.50
2023-01-13T02:02:59.454Z,2.70
2023-01-13T02:05:27.861Z,2.80
2023-01-13T02:07:58.053Z,2.70
2023-01-13T02:10:28.860Z,2.80
2023-01-13T02:13:04.164Z,2.50
2023-01-13T02:15:53.758Z,2.80
2023-01-13T02:19:05.066Z,2.30
2023-01-13T02:22:05.325Z,2.60
2023-01-13T02:24:54.357Z,3.00
2023-01-13T02:27:39.205Z,2.70
2023-01-13T02:30:44.485Z,2.30
2023-01-13T02:33:36.623Z,2.60
2023-01-13T02:36:11.844Z,3.30
2023-01-13T02:39:14.648Z,2.60
2023-01-13T02:42:26.698Z,2.50
2023-01-13T02:45:07.871Z,2.50
2023-01-13T02:47:38.734Z,2.40
2023-01-13T02:50:17.488Z,2.40
2023-01-13T02:52:56.724Z,2.70
2023-01-13T02:55:39.102Z,2.40
2023-01-13T02:58:09.735Z,3.10
2023-01-13T03:00:38.174Z,2.70
2023-01-13T03:03:06.157Z,2.10
2023-01-13T03:05:34.362Z,2.10
2023-01-13T03:08:26.639Z,2.40
2023-01-13T03:11:16.880Z,2.40
2023-01-13T03:14:26.705Z,2.50
2023-01-13T03:17:13.140Z,2.30
2023-01-13T03:20:05.470Z,2.30
2023-01-13T03:23:08.601Z,2.40
2023-01-13T03:25:51.467Z,2.10
2023-01-13T03:31:04.973Z,2.00
2023-01-13T03:33:39.762Z,2.00
2023-01-13T03:36:10.807Z,1.90
2023-01-13T03:38:45.876Z,2.10
2023-01-13T03:41:30.817Z,2.10
2023-01-13T03:44:27.427Z,2.20
2023-01-13T03:47:16.043Z,1.90
2023-01-13T03:50:02.686Z,1.70
2023-01-13T03:52:38.242Z,2.00
2023-01-13T03:55:19.268Z,1.90
2023-01-13T03:58:37.114Z,2.20
2023-01-13T04:01:22.010Z,2.10
2023-01-13T04:04:17.053Z,2.10
2023-01-13T04:06:54.525Z,2.30
2023-01-13T04:09:55.652Z,1.90
2023-01-13T04:12:52.276Z,2.40
2023-01-13T04:15:24.295Z,2.20
2023-01-13T04:17:52.878Z,2.10
2023-01-13T04:20:21.283Z,2.10
2023-01-13T04:22:49.273Z,2.50
2023-01-13T04:25:17.722Z,2.30
2023-01-13T04:27:45.806Z,2.20
2023-01-13T04:30:14.046Z,2.20
2023-01-13T04:32:42.035Z,2.40
2023-01-13T04:35:12.404Z,2.30
2023-01-13T04:37:40.599Z,2.60
2023-01-13T04:40:09.756Z,2.80
2023-01-13T04:42:37.736Z,3.20
2023-01-13T04:45:06.625Z,3.40
2023-01-13T04:47:34.680Z,3.40
2023-01-13T04:50:02.929Z,3.90
2023-01-13T04:52:30.844Z,4.30
2023-01-13T04:54:58.902Z,3.50
2023-01-13T04:57:26.917Z,4.10
2023-01-13T04:59:55.045Z,3.70
2023-01-13T05:02:23.219Z,4.00
2023-01-13T05:04:51.330Z,3.90
2023-01-13T05:07:19.386Z,4.00
2023-01-13T05:09:47.582Z,5.10
2023-01-13T05:12:34.302Z,5.10
2023-01-13T05:15:20.919Z,3.50
2023-01-13T05:17:49.094Z,3.70
2023-01-13T05:20:18.256Z,3.70
2023-01-13T05:23:04.610Z,3.80
2023-01-13T05:25:42.348Z,3.20
2023-01-13T05:28:12.155Z,3.40
2023-01-13T05:30:43.613Z,3.00
2023-01-13T05:33:17.746Z,3.40
2023-01-13T05:35:47.231Z,3.10
2023-01-13T05:38:15.997Z,3.10
2023-01-13T05:41:02.681Z,3.20
2023-01-13T05:43:30.764Z,3.00
2023-01-13T05:46:08.067Z,3.10
2023-01-13T05:48:39.350Z,3.00
2023-01-13T05:51:10.179Z,3.00
2023-01-13T05:53:40.683Z,3.30
2023-01-13T05:56:09.564Z,3.70
2023-01-13T05:58:37.587Z,12.40
2023-01-13T06:01:10.505Z,9.70
2023-01-13T06:03:38.551Z,11.30
2023-01-13T06:06:09.076Z,10.00
2023-01-13T06:08:39.533Z,12.80
2023-01-13T06:11:07.957Z,9.00
2023-01-13T06:13:36.152Z,9.90
2023-01-13T06:16:04.668Z,10.80
2023-01-13T06:18:32.794Z,10.90
2023-01-13T06:21:00.782Z,8.70
2023-01-13T06:23:29.073Z,7.70
2023-01-13T06:26:08.789Z,8.50
2023-01-13T06:28:36.787Z,6.80
2023-01-13T06:31:07.822Z,4.70
2023-01-13T06:33:40.160Z,4.20
2023-01-13T06:36:18.852Z,3.60
2023-01-13T06:38:49.700Z,3.50
2023-01-13T06:41:18.430Z,3.00
2023-01-13T06:43:48.750Z,3.00
2023-01-13T06:46:17.031Z,3.10
2023-01-13T06:48:45.154Z,2.80
2023-01-13T06:51:13.464Z,3.00
2023-01-13T06:53:41.416Z,2.60
2023-01-13T06:56:09.479Z,3.90
2023-01-13T06:58:37.561Z,2.90
2023-01-13T07:01:07.184Z,3.30
2023-01-13T07:03:35.268Z,2.70
2023-01-13T07:06:03.427Z,2.80
2023-01-13T07:08:31.637Z,2.90
2023-01-13T07:11:02.615Z,3.20
2023-01-13T07:13:49.055Z,3.00
2023-01-13T07:16:17.429Z,5.70
2023-01-13T07:18:45.574Z,7.40
2023-01-13T07:21:13.680Z,9.30
2023-01-13T07:23:42.115Z,12.70
2023-01-13T07:26:12.311Z,13.20
2023-01-13T07:28:40.716Z,11.80
2023-01-13T07:31:23.706Z,10.80
2023-01-13T07:33:51.785Z,9.80
2023-01-13T07:36:19.768Z,7.10
2023-01-13T07:38:47.874Z,5.20
2023-01-13T07:41:34.448Z,4.90
2023-01-13T07:44:06.347Z,3.50
2023-01-13T07:46:34.811Z,3.40
2023-01-13T07:49:03.867Z,3.50
2023-01-13T07:51:32.191Z,3.20
2023-01-13T07:54:00.232Z,3.20
2023-01-13T07:56:28.351Z,2.80
2023-01-13T07:58:56.372Z,4.50
2023-01-13T08:01:24.408Z,3.80
2023-01-13T08:03:52.354Z,7.00
2023-01-13T08:06:20.339Z,5.50
2023-01-13T08:08:48.261Z,4.90
2023-01-13T08:11:16.526Z,5.10
2023-01-13T08:13:45.363Z,2.70
2023-01-13T08:16:15.493Z,2.90
2023-01-13T08:18:43.727Z,2.60
2023-01-13T08:21:14.499Z,2.50
2023-01-13T08:23:44.388Z,2.60
2023-01-13T08:26:17.656Z,3.10
2023-01-13T08:28:46.252Z,3.30
2023-01-13T08:31:16.675Z,2.90
2023-01-13T08:33:44.994Z,3.50
2023-01-13T08:36:14.031Z,2.70
2023-01-13T08:38:42.325Z,3.10
2023-01-13T08:41:36.207Z,3.20
2023-01-13T08:44:06.749Z,3.00
2023-01-13T08:46:35.320Z,2.70
2023-01-13T08:49:04.192Z,2.80
2023-01-13T08:51:32.340Z,3.00
2023-01-13T08:54:00.534Z,2.90
2023-01-13T08:56:31.303Z,2.60
2023-01-13T08:59:01.559Z,3.00
2023-01-13T09:01:34.148Z,3.20
2023-01-13T09:06:30.375Z,2.80
2023-01-13T09:08:59.596Z,3.10
2023-01-13T09:11:52.046Z,3.70
2023-01-13T09:14:25.808Z,3.20
2023-01-13T09:16:53.909Z,3.00
2023-01-13T09:19:22.026Z,2.80
2023-01-13T09:21:50.275Z,3.10
2023-01-13T09:24:20.019Z,2.80
2023-01-13T09:26:49.017Z,3.00
2023-01-13T09:29:17.691Z,3.00
2023-01-13T09:31:46.030Z,2.70
2023-01-13T09:34:38.200Z,2.90
2023-01-13T09:37:07.461Z,2.50
2023-01-13T09:39:36.315Z,2.80
2023-01-13T09:42:46.227Z,2.80
2023-01-13T09:45:23.938Z,3.10
2023-01-13T09:48:06.772Z,3.40
2023-01-13T09:50:43.604Z,3.40
2023-01-13T09:53:39.875Z,3.40
2023-01-13T09:56:10.845Z,3.00
2023-01-13T09:58:38.864Z,2.50
2023-01-13T10:01:32.481Z,2.80
2023-01-13T10:04:10.886Z,2.60
2023-01-13T10:06:44.261Z,2.80
2023-01-13T10:09:27.616Z,2.90
2023-01-13T10:12:16.543Z,2.60
2023-01-13T10:14:56.122Z,3.00
2023-01-13T10:17:51.163Z,2.30
2023-01-13T10:20:27.687Z,2.80
2023-01-13T10:23:53.547Z,2.90
2023-01-13T10:26:34.306Z,3.10
2023-01-13T10:29:02.323Z,3.20
2023-01-13T10:31:30.384Z,3.10
2023-01-13T10:34:06.284Z,3.20
2023-01-13T10:36:34.357Z,3.10
2023-01-13T10:39:16.032Z,3.20
2023-01-13T10:41:45.054Z,2.80
2023-01-13T10:44:20.835Z,2.90
2023-01-13T10:47:02.348Z,3.40
2023-01-13T10:49:38.950Z,3.80
2023-01-13T10:52:40.634Z,3.30
2023-01-13T10:55:35.950Z,3.00
2023-01-13T10:58:25.676Z,3.40
2023-01-13T11:01:08.708Z,3.60
2023-01-13T11:03:57.818Z,3.10
2023-01-13T11:06:42.056Z,3.30
2023-01-13T11:09:25.376Z,3.50
2023-01-13T11:12:12.037Z,3.10
2023-01-13T11:14:52.628Z,2.80
2023-01-13T11:18:00.786Z,3.20
2023-01-13T11:20:55.683Z,3.40
2023-01-13T11:23:51.941Z,3.00
2023-01-13T11:26:49.844Z,3.30
2023-01-13T11:29:52.565Z,3.10
2023-01-13T11:32:31.071Z,3.50
2023-01-13T11:35:30.653Z,3.10
2023-01-13T11:38:21.457Z,3.30
2023-01-13T11:40:58.637Z,3.20
2023-01-13T11:44:04.647Z,3.00
2023-01-13T11:46:42.357Z,3.50
2023-01-13T11:49:44.254Z,3.60
2023-01-13T11:53:12.801Z,3.80
2023-01-13T11:56:30.098Z,3.30
2023-01-13T11:59:32.236Z,3.30
2023-01-13T12:02:10.330Z,3.10
2023-01-13T12:05:02.693Z,3.40
2023-01-13T12:07:48.576Z,3.30
2023-01-13T12:10:38.633Z,3.10
2023-01-13T12:14:01.053Z,3.00
2023-01-13T12:16:31.290Z,3.20
2023-01-13T12:19:21.643Z,3.40
2023-01-13T12:22:29.506Z,3.20
2023-01-13T12:25:22.333Z,3.40
2023-01-13T12:28:07.813Z,3.60
2023-01-13T12:30:52.353Z,3.30
2023-01-13T12:33:57.968Z,2.90
2023-01-13T12:36:49.286Z,2.90
2023-01-13T12:39:29.665Z,2.80
2023-01-13T12:42:38.894Z,2.80
2023-01-13T12:45:12.994Z,2.30
2023-01-13T12:47:44.961Z,2.50
2023-01-13T12:50:22.704Z,2.10
2023-01-13T12:53:20.359Z,0.90
2023-01-13T12:55:54.477Z,0.80
2023-01-13T12:58:29.170Z,0.80
2023-01-13T13:01:01.423Z,1.00
2023-01-13T13:03:34.988Z,1.20
2023-01-13T13:06:11.241Z,1.40
2023-01-13T13:09:28.548Z,1.50
2023-01-13T13:12:50.120Z,2.00
2023-01-13T13:15:31.763Z,1.90
2023-01-13T13:18:00.218Z,2.40
2023-01-13T13:21:04.195Z,2.20
2023-01-13T13:23:41.957Z,1.90
2023-01-13T13:26:25.294Z,2.30
2023-01-13T13:29:26.533Z,2.90
2023-01-13T13:32:17.636Z,2.70
2023-01-13T13:34:51.240Z,2.60
2023-01-13T13:38:03.621Z,2.70
2023-01-13T13:40:58.834Z,3.70
2023-01-13T13:43:48.667Z,3.90
2023-01-13T13:46:48.456Z,4.40
2023-01-13T13:49:22.868Z,4.80
2023-01-13T13:52:01.421Z,4.50
2023-01-13T13:54:30.033Z,4.60
2023-01-13T13:57:01.131Z,4.70
2023-01-13T13:59:34.614Z,5.40
2023-01-13T14:02:04.154Z,4.80
2023-01-13T14:04:37.560Z,4.40
2023-01-13T14:07:22.090Z,4.90
2023-01-13T14:11:13.692Z,4.50
2023-01-13T14:15:18.250Z,4.50
2023-01-13T14:26:53.433Z,3.60
2023-01-13T14:29:37.448Z,3.10
2023-01-13T14:48:05.679Z,2.30
2023-01-13T14:50:58.297Z,2.20
2023-01-13T14:55:54.791Z,2.10
2023-01-13T14:58:52.761Z,2.10
2023-01-13T15:06:06.961Z,2.00
2023-01-13T15:08:39.674Z,1.90
2023-01-13T15:11:25.100Z,2.00
2023-01-13T15:22:40.232Z,2.10
2023-01-13T15:25:12.342Z,1.60
2023-01-13T15:27:43.071Z,1.30
2023-01-13T15:30:18.070Z,1.50
2023-01-13T15:32:46.536Z,1.70
2023-01-13T15:35:19.006Z,1.70
2023-01-13T15:37:50.520Z,1.60
2023-01-13T15:40:23.554Z,1.70
2023-01-13T15:43:19.495Z,1.90
2023-01-13T15:46:11.557Z,2.50
2023-01-13T15:48:39.750Z,2.00
2023-01-13T15:51:12.163Z,2.00
2023-01-13T15:54:02.672Z,2.50
2023-01-13T15:56:31.096Z,2.10
2023-01-13T15:58:59.264Z,2.10
2023-01-13T16:01:30.494Z,2.30
2023-01-13T16:03:58.763Z,2.10
2023-01-13T16:06:32.860Z,2.70
2023-01-13T16:09:05.878Z,1.70
2023-01-13T16:11:34.352Z,2.00
2023-01-13T16:14:11.935Z,2.20
2023-01-13T16:16:42.735Z,2.10
2023-01-13T16:19:13.057Z,2.20
2023-01-13T16:21:45.501Z,2.50
2023-01-13T16:24:21.794Z,2.30
2023-01-13T16:26:52.609Z,2.40
2023-01-13T16:29:20.707Z,2.00
2023-01-13T16:31:53.094Z,3.10
2023-01-13T16:34:21.373Z,2.00
2023-01-13T16:36:50.621Z,2.50
2023-01-13T16:39:22.596Z,2.70
2023-01-13T16:41:53.275Z,2.50
2023-01-13T16:44:24.838Z,3.00
2023-01-13T16:46:55.426Z,3.10
2023-01-13T16:49:25.604Z,3.20
2023-01-13T16:51:56.805Z,3.00
2023-01-13T16:54:25.066Z,3.60
2023-01-13T16:56:55.336Z,3.10
2023-01-13T16:59:23.572Z,3.40
2023-01-13T17:01:52.186Z,3.30
2023-01-13T17:04:23.636Z,2.70
2023-01-13T17:06:58.022Z,3.30
2023-01-13T17:09:28.981Z,3.10
2023-01-13T17:11:57.663Z,3.40
2023-01-13T17:14:26.585Z,6.30
2023-01-13T17:16:58.133Z,16.80
2023-01-13T17:19:26.492Z,8.90
2023-01-13T17:21:54.968Z,5.80
2023-01-13T17:24:26.810Z,4.80
2023-01-13T17:26:55.309Z,4.20
2023-01-13T17:29:26.697Z,4.40
2023-01-13T17:31:55.520Z,4.90
2023-01-13T17:34:25.108Z,4.40
2023-01-13T17:36:53.718Z,4.20
2023-01-13T17:39:26.920Z,4.80
2023-01-13T17:41:58.596Z,4.40
2023-01-13T17:44:27.071Z,9.30
2023-01-13T17:46:55.436Z,8.50
2023-01-13T17:49:24.183Z,7.00
2023-01-13T17:51:53.122Z,6.60
2023-01-13T17:54:22.782Z,6.80
2023-01-13T17:56:53.471Z,6.80
2023-01-13T17:59:23.185Z,7.80
2023-01-13T18:01:52.555Z,8.10
2023-01-13T18:04:27.293Z,9.10
2023-01-13T18:06:57.119Z,8.10
2023-01-13T18:09:27.038Z,8.40
2023-01-13T18:11:55.317Z,9.20
2023-01-13T18:14:23.609Z,12.10
2023-01-13T18:16:52.201Z,8.80
2023-01-13T18:19:38.919Z,9.30
2023-01-13T18:22:25.728Z,9.80
2023-01-13T18:25:14.966Z,10.30
2023-01-13T18:27:46.598Z,13.70
2023-01-13T18:30:17.207Z,13.70
2023-01-13T18:32:52.304Z,9.60
2023-01-13T18:35:27.959Z,15.20
2023-01-13T18:38:12.343Z,11.40
2023-01-13T18:40:53.570Z,6.60
2023-01-13T18:43:22.095Z,5.10
2023-01-13T18:45:51.623Z,5.20
2023-01-13T18:48:21.060Z,5.10
2023-01-13T18:51:11.497Z,4.80
2023-01-13T18:53:41.124Z,5.30
2023-01-13T18:56:14.320Z,6.50
2023-01-13T18:58:51.157Z,5.70
2023-01-13T19:01:26.100Z,5.40
2023-01-13T19:04:00.335Z,5.80
2023-01-13T19:06:53.745Z,6.30
2023-01-13T19:09:24.895Z,6.20
2023-01-13T19:11:53.680Z,5.60
2023-01-13T19:14:42.384Z,6.40
2023-01-13T19:17:15.237Z,5.20
2023-01-13T19:19:56.013Z,6.10
2023-01-13T19:22:36.190Z,6.50
2023-01-13T19:25:06.600Z,5.60
2023-01-13T19:27:37.542Z,5.10
2023-01-13T19:30:09.132Z,5.10
2023-01-13T19:32:37.809Z,6.40
2023-01-13T19:35:09.244Z,7.10
2023-01-13T19:37:38.658Z,5.50
2023-01-13T19:40:12.320Z,5.60
2023-01-13T19:43:05.775Z,10.40
2023-01-13T19:45:36.519Z,5.70
2023-01-13T19:48:06.962Z,5.10
2023-01-13T19:50:41.427Z,6.30
2023-01-13T19:53:18.108Z,6.30
2023-01-13T19:55:49.988Z,6.10
2023-01-13T20:00:54.651Z,6.50
2023-01-13T20:03:31.031Z,8.70
2023-01-13T20:06:08.525Z,6.50
2023-01-13T20:08:37.891Z,8.70
2023-01-13T20:11:21.811Z,5.40
2023-01-13T20:13:56.317Z,4.80
2023-01-13T20:16:27.171Z,4.70
2023-01-13T20:18:57.002Z,5.00
2023-01-13T20:21:29.114Z,4.30
2023-01-13T20:23:57.694Z,4.70
2023-01-13T20:26:26.522Z,3.10
2023-01-13T20:28:55.380Z,3.30
2023-01-13T20:31:27.621Z,3.10
2023-01-13T20:33:57.865Z,3.30
2023-01-13T20:36:31.623Z,3.50
2023-01-13T20:39:02.197Z,2.80
2023-01-13T20:41:49.391Z,3.00
2023-01-13T20:44:19.235Z,3.20
2023-01-13T20:46:47.736Z,3.20
2023-01-13T20:49:16.570Z,2.80
2023-01-13T20:51:45.942Z,3.30
2023-01-13T20:54:14.586Z,3.30
2023-01-13T20:56:43.940Z,2.90
2023-01-13T20:59:12.119Z,3.10
2023-01-13T21:01:41.070Z,2.90
2023-01-13T21:04:09.817Z,3.20
2023-01-13T21:06:38.301Z,2.30
2023-01-13T21:09:06.549Z,2.90
2023-01-13T21:11:53.314Z,3.10
2023-01-13T21:14:45.235Z,3.10
2023-01-13T21:17:34.023Z,2.30
2023-01-13T21:20:04.312Z,2.70
2023-01-13T21:22:32.761Z,3.00
2023-01-13T21:25:02.601Z,3.00
2023-01-13T21:27:31.666Z,2.50
2023-01-13T21:30:00.356Z,2.90
2023-01-13T21:32:29.025Z,2.80
2023-01-13T21:34:59.048Z,3.00
2023-01-13T21:37:27.382Z,2.50
2023-01-13T21:39:55.810Z,1.90
2023-01-13T21:42:42.508Z,2.00
2023-01-13T21:45:29.683Z,2.00
2023-01-13T21:47:58.224Z,2.10
2023-01-13T21:50:28.840Z,1.80
2023-01-13T21:52:58.345Z,2.20
2023-01-13T21:55:29.963Z,2.00
2023-01-13T21:58:13.427Z,2.10
2023-01-13T22:00:49.173Z,1.70
2023-01-13T22:03:18.935Z,2.10
2023-01-13T22:05:56.810Z,1.70
2023-01-13T22:08:25.267Z,1.60
2023-01-13T22:11:00.290Z,2.00
2023-01-13T22:13:48.101Z,2.10
2023-01-13T22:16:16.690Z,2.00
2023-01-13T22:18:44.702Z,2.50
2023-01-13T22:21:12.871Z,2.00
2023-01-13T22:23:41.168Z,1.90
2023-01-13T22:26:09.390Z,1.80
2023-01-13T22:28:43.005Z,2.10
2023-01-13T22:31:18.311Z,2.30
2023-01-13T22:33:49.672Z,2.40
2023-01-13T22:36:17.785Z,2.50
2023-01-13T22:38:46.084Z,2.30
2023-01-13T22:41:14.417Z,2.10
2023-01-13T22:43:42.606Z,2.40
2023-01-13T22:46:12.375Z,2.70
2023-01-13T22:48:41.217Z,2.30
2023-01-13T22:51:12.459Z,2.40
2023-01-13T22:53:41.107Z,1.90
2023-01-13T22:56:19.748Z,2.50
2023-01-13T22:58:49.049Z,2.50
2023-01-13T23:01:17.971Z,2.20
2023-01-13T23:03:47.994Z,2.20
2023-01-13T23:06:18.270Z,2.10
2023-01-13T23:08:47.364Z,2.30
2023-01-13T23:11:17.986Z,2.70
2023-01-13T23:13:46.614Z,2.40
2023-01-13T23:16:18.362Z,3.20
2023-01-13T23:18:48.167Z,3.10
2023-01-13T23:21:23.748Z,3.00
2023-01-13T23:23:52.462Z,2.70
2023-01-13T23:26:21.264Z,3.30
2023-01-13T23:28:49.885Z,3.00
2023-01-13T23:31:21.952Z,4.00
2023-01-13T23:33:49.995Z,3.20
2023-01-13T23:36:21.479Z,2.70
2023-01-13T23:38:50.930Z,3.20
2023-01-13T23:41:23.032Z,2.50
2023-01-13T23:44:00.025Z,2.90
2023-01-13T23:46:30.204Z,3.00
2023-01-13T23:48:58.351Z,2.30
2023-01-13T23:51:27.619Z,2.20
2023-01-13T23:53:56.335Z,2.70
2023-01-13T23:56:27.950Z,2.30
2023-01-13T23:58:56.513Z,2.10
